Mount Dora, New Mexico
Current Conditions -  °F | °C
As of 12:55 AM on Tuesday 27 Jan 2015 (Local Time) from KCAO Reporting Station
Clear Clear  
Wind Chill: 37°   Ceiling: Unl
Heat Index: 42°   Visibility: 10mi
Dew Point: 28°   Wind: 9mph
Humidity: 58%   Direction: 270°W
Pressure: 30.25"   Gusts: NA
Location:  36.51°N, 103.49°W
Report Text: KCAO 270755Z AUTO 27008KT 10SM CLR 06/M02 A3025 RMK AO2 SLP215 T00561022
Loading
Personal Weather Stations






























Interactive Weather Map New forecast layout! Learn more

10-Day Weather Forecast

Advertisements
Track Severe Weather on mobile